Hauptseite
METAR-TAF:

METAR-TAF

Flughäfen :

Norwich International Airport

Norwich, England

Breite: 52-38N, Länge: 001-18E, Höhe: 14 m

Beobachtung

Neuester Wetterbericht von vor 31 Minuten, um 18:50 UTC
Wind 7 kt aus Süd/Südost, variierte zwischen Ost und Süd/Südwest
Temperatur 26°C
Luftfeuchtigkeit 58%
Luftdruck 1018 hPa
Sichtweite 10 km oder mehr
Leicht bewölkt in der Höhe von 4500 ft

METAR: EGSH 061850Z 16007KT 090V200 9999 FEW045 26/17 Q1018 NOSIG

Zeit: 20:21 (19:21 UTC)

Prognose

Neuester Wetterbericht von vor 2 Stunden und 20 Minuten, um 17:01 UTC
Gültige Prognose vom 06 um 18 UTC bis 07 um 03 UTC
Wind 7 kt aus Süd/Südwest
Sichtweite 10 km oder mehr
Aufgelockert bewölkt in der Höhe von 3000 ft

TAF: EGSH 061701Z 0618/0703 20007KT 9999 SCT030

Wetterbeobachtungen und Prognosen von mehr als 4000 Flughäfen (METAR und TAF Bericht).

Die verfügbaren Stationen werden durch gelbe und rote Markierungen auf der Karte dargestellt.

Führen Sie die Maus auf sie, um den Namen der Station zu sehen.

Darauf klicken, um die Beobachtung von Wetterbeobachtungen und Prognosen zu sehen.

Um die Karte zu ändern : klicken Sie auf den grünen Tasten mit einem schwarzen Kreuz Zum Vergrößern, auf den grünen Button mit einem Gedankenstrich zu verkleinern, oder auf die grünen Pfeile für benachbarte Karten.


METAR-TAF: